createdAt,value
2023-03-30T00:00:16.940Z,15.70
2023-03-30T00:02:45.621Z,15.60
2023-03-30T00:05:14.209Z,15.60
2023-03-30T00:07:43.358Z,15.50
2023-03-30T00:10:13.171Z,15.50
2023-03-30T00:12:43.616Z,15.40
2023-03-30T00:15:15.418Z,15.40
2023-03-30T00:17:45.747Z,15.40
2023-03-30T00:20:14.920Z,15.40
2023-03-30T00:22:46.986Z,15.30
2023-03-30T00:25:16.828Z,15.20
2023-03-30T00:27:45.257Z,15.20
2023-03-30T00:30:17.070Z,15.20
2023-03-30T00:32:45.610Z,15.10
2023-03-30T00:35:14.389Z,14.90
2023-03-30T00:37:45.865Z,15.00
2023-03-30T00:40:18.178Z,15.00
2023-03-30T00:42:47.089Z,14.90
2023-03-30T00:45:29.783Z,14.90
2023-03-30T00:48:06.280Z,14.90
2023-03-30T00:50:38.182Z,14.70
2023-03-30T00:53:11.767Z,14.80
2023-03-30T00:55:41.841Z,14.80
2023-03-30T00:58:11.162Z,14.80
2023-03-30T01:00:43.429Z,14.70
2023-03-30T01:03:23.073Z,14.70
2023-03-30T01:05:53.194Z,14.70
2023-03-30T01:08:24.331Z,14.70
2023-03-30T01:10:52.782Z,14.70
2023-03-30T01:13:21.577Z,14.70
2023-03-30T01:16:06.219Z,14.70
2023-03-30T01:18:47.786Z,14.70
2023-03-30T01:22:00.086Z,14.70
2023-03-30T01:25:07.267Z,14.70
2023-03-30T01:28:06.735Z,14.70
2023-03-30T01:30:55.053Z,14.70
2023-03-30T01:33:50.767Z,14.70
2023-03-30T01:37:15.948Z,14.70
2023-03-30T01:39:56.162Z,14.70
2023-03-30T01:42:29.036Z,14.80
2023-03-30T01:45:06.021Z,14.70
2023-03-30T01:47:39.425Z,14.70
2023-03-30T01:50:13.014Z,14.70
2023-03-30T01:52:47.147Z,14.70
2023-03-30T01:55:22.286Z,14.70
2023-03-30T01:57:56.525Z,14.70
2023-03-30T02:00:27.776Z,14.70
2023-03-30T02:03:01.479Z,14.70
2023-03-30T02:05:32.039Z,14.60
2023-03-30T02:08:04.658Z,14.60
2023-03-30T02:10:37.205Z,14.60
2023-03-30T02:13:07.521Z,14.50
2023-03-30T02:15:38.965Z,14.50
2023-03-30T02:18:07.224Z,14.50
2023-03-30T02:20:36.653Z,14.50
2023-03-30T02:23:06.740Z,14.50
2023-03-30T02:25:39.113Z,14.50
2023-03-30T02:28:08.853Z,14.50
2023-03-30T02:30:42.072Z,14.50
2023-03-30T02:33:19.725Z,14.50
2023-03-30T02:35:59.084Z,14.50
2023-03-30T02:38:59.726Z,14.50
2023-03-30T02:42:06.860Z,14.50
2023-03-30T02:44:45.880Z,14.50
2023-03-30T02:47:20.226Z,14.60
2023-03-30T02:49:58.645Z,14.50
2023-03-30T02:52:43.027Z,14.50
2023-03-30T02:55:19.960Z,14.50
2023-03-30T02:57:58.188Z,14.50
2023-03-30T03:00:31.213Z,14.50
2023-03-30T03:03:05.953Z,14.40
2023-03-30T03:05:35.692Z,14.50
2023-03-30T03:08:03.902Z,14.50
2023-03-30T03:10:36.447Z,14.60
2023-03-30T03:13:06.185Z,14.50
2023-03-30T03:15:38.025Z,14.50
2023-03-30T03:18:06.488Z,14.50
2023-03-30T03:20:34.721Z,14.50
2023-03-30T03:23:02.848Z,14.50
2023-03-30T03:25:33.756Z,14.50
2023-03-30T03:28:09.263Z,14.50
2023-03-30T03:30:37.633Z,14.50
2023-03-30T03:33:06.008Z,14.50
2023-03-30T03:35:34.630Z,14.50
2023-03-30T03:38:02.983Z,14.40
2023-03-30T03:40:31.465Z,14.40
2023-03-30T03:42:59.568Z,14.30
2023-03-30T03:45:29.726Z,14.30
2023-03-30T03:47:59.124Z,14.30
2023-03-30T03:50:27.584Z,14.30
2023-03-30T03:52:56.160Z,14.30
2023-03-30T03:55:25.012Z,14.20
2023-03-30T03:57:54.977Z,14.20
2023-03-30T04:00:23.577Z,14.10
2023-03-30T04:02:53.703Z,14.10
2023-03-30T04:05:22.044Z,14.00
2023-03-30T04:07:50.204Z,14.10
2023-03-30T04:10:18.254Z,14.00
2023-03-30T04:12:46.634Z,14.10
2023-03-30T04:15:15.050Z,13.90
2023-03-30T04:17:47.302Z,13.80
2023-03-30T04:20:19.517Z,13.70
2023-03-30T04:22:50.137Z,13.70
2023-03-30T04:25:19.605Z,13.60
2023-03-30T04:27:50.681Z,13.60
2023-03-30T04:30:20.131Z,13.70
2023-03-30T04:32:54.973Z,13.50
2023-03-30T04:35:24.416Z,13.40
2023-03-30T04:37:52.594Z,13.60
2023-03-30T04:40:20.647Z,13.20
2023-03-30T04:42:49.942Z,13.30
2023-03-30T04:45:19.439Z,13.20
2023-03-30T04:47:47.812Z,13.20
2023-03-30T04:50:16.578Z,13.20
2023-03-30T04:52:46.334Z,13.10
2023-03-30T04:55:14.461Z,13.00
2023-03-30T04:57:45.157Z,13.00
2023-03-30T05:00:14.447Z,13.00
2023-03-30T05:02:42.650Z,12.90
2023-03-30T05:05:11.015Z,12.80
2023-03-30T05:07:39.321Z,12.80
2023-03-30T05:10:09.678Z,12.80
2023-03-30T05:12:37.986Z,12.80
2023-03-30T05:15:07.249Z,12.70
2023-03-30T05:17:35.528Z,12.70
2023-03-30T05:20:08.510Z,12.80
2023-03-30T05:22:37.490Z,12.70
2023-03-30T05:25:06.190Z,12.70
2023-03-30T05:27:36.019Z,12.70
2023-03-30T05:30:04.760Z,12.70
2023-03-30T05:32:33.137Z,12.60
2023-03-30T05:35:01.528Z,12.60
2023-03-30T05:37:29.704Z,12.60
2023-03-30T05:39:58.209Z,12.60
2023-03-30T05:42:26.615Z,12.60
2023-03-30T05:44:56.823Z,12.60
2023-03-30T05:47:25.171Z,12.60
2023-03-30T05:49:54.962Z,12.50
2023-03-30T05:52:24.040Z,12.50
2023-03-30T05:54:52.159Z,12.50
2023-03-30T05:57:21.152Z,12.50
2023-03-30T05:59:49.537Z,12.50
2023-03-30T06:02:19.957Z,12.50
2023-03-30T06:04:48.517Z,12.50
2023-03-30T06:07:17.959Z,12.50
2023-03-30T06:09:46.148Z,12.50
2023-03-30T06:12:14.640Z,12.60
2023-03-30T06:14:44.890Z,12.50
2023-03-30T06:17:16.130Z,12.60
2023-03-30T06:19:45.719Z,12.60
2023-03-30T06:22:13.952Z,12.60
2023-03-30T06:24:42.016Z,12.60
2023-03-30T06:27:10.148Z,12.60
2023-03-30T06:29:38.436Z,12.80
2023-03-30T06:32:07.219Z,12.70
2023-03-30T06:34:37.575Z,12.70
2023-03-30T06:37:08.811Z,12.60
2023-03-30T06:39:37.897Z,12.60
2023-03-30T06:42:06.625Z,12.60
2023-03-30T06:44:35.247Z,12.60
2023-03-30T06:47:03.469Z,12.60
2023-03-30T06:49:31.719Z,12.60
2023-03-30T06:52:03.254Z,12.60
2023-03-30T06:54:35.730Z,12.60
2023-03-30T06:57:06.570Z,12.60
2023-03-30T06:59:35.114Z,12.60
2023-03-30T07:02:03.719Z,12.60
2023-03-30T07:04:32.043Z,12.60
2023-03-30T07:07:00.366Z,12.80
2023-03-30T07:09:28.581Z,12.70
2023-03-30T07:11:58.145Z,12.80
2023-03-30T07:14:26.678Z,12.80
2023-03-30T07:16:55.033Z,12.90
2023-03-30T07:19:24.439Z,12.90
2023-03-30T07:21:52.644Z,12.90
2023-03-30T07:24:20.786Z,12.90
2023-03-30T07:26:48.932Z,13.00
2023-03-30T07:29:18.399Z,12.90
2023-03-30T07:31:46.741Z,12.90
2023-03-30T07:34:15.258Z,13.00
2023-03-30T07:36:43.448Z,13.00
2023-03-30T07:39:11.588Z,13.00
2023-03-30T07:41:40.113Z,13.00
2023-03-30T07:44:11.390Z,13.00
2023-03-30T07:46:41.342Z,13.00
2023-03-30T07:49:09.660Z,13.00
2023-03-30T07:51:37.893Z,13.00
2023-03-30T07:54:06.890Z,13.00
2023-03-30T07:56:38.736Z,13.00
2023-03-30T07:59:08.318Z,13.00
2023-03-30T08:01:40.782Z,13.00
2023-03-30T08:04:11.392Z,13.00
2023-03-30T08:06:39.867Z,13.00
2023-03-30T08:09:08.671Z,13.00
2023-03-30T08:11:36.758Z,13.10
2023-03-30T08:14:05.370Z,13.10
2023-03-30T08:16:33.813Z,13.10
2023-03-30T08:19:05.278Z,13.20
2023-03-30T08:21:34.992Z,13.20
2023-03-30T08:24:03.266Z,13.20
2023-03-30T08:26:31.954Z,13.30
2023-03-30T08:29:00.185Z,13.30
2023-03-30T08:31:28.298Z,13.30
2023-03-30T08:33:56.705Z,13.30
2023-03-30T08:36:24.926Z,13.30
2023-03-30T08:38:55.989Z,13.40
2023-03-30T08:41:44.155Z,13.40
2023-03-30T08:44:16.501Z,13.40
2023-03-30T08:46:47.546Z,13.40
2023-03-30T08:49:20.491Z,13.50
2023-03-30T08:51:51.559Z,13.50
2023-03-30T08:54:25.949Z,13.50
2023-03-30T08:57:07.004Z,13.60
2023-03-30T08:59:43.077Z,13.60
2023-03-30T09:02:18.241Z,13.70
2023-03-30T09:05:02.103Z,13.80
2023-03-30T09:07:33.164Z,13.50
2023-03-30T09:10:02.967Z,13.50
2023-03-30T09:12:40.343Z,13.60
2023-03-30T09:15:14.649Z,13.70
2023-03-30T09:17:47.384Z,13.80
2023-03-30T09:20:20.759Z,14.00
2023-03-30T09:22:50.063Z,14.10
2023-03-30T09:25:26.301Z,14.00
2023-03-30T09:28:06.816Z,14.10
2023-03-30T09:30:41.208Z,14.10
2023-03-30T09:33:26.051Z,14.10
2023-03-30T09:36:06.949Z,14.10
2023-03-30T09:38:38.339Z,14.10
2023-03-30T09:41:22.077Z,14.10
2023-03-30T09:43:52.387Z,14.10
2023-03-30T09:46:20.585Z,14.10
2023-03-30T09:48:51.419Z,14.10
2023-03-30T09:51:25.340Z,14.10
2023-03-30T09:53:59.881Z,14.20
2023-03-30T09:56:40.921Z,14.10
2023-03-30T09:59:22.299Z,14.30
2023-03-30T10:01:50.586Z,14.40
2023-03-30T10:04:19.504Z,14.50
2023-03-30T10:06:50.169Z,14.70
2023-03-30T10:09:22.706Z,14.90
2023-03-30T10:11:54.744Z,15.00
2023-03-30T10:14:34.788Z,15.10
2023-03-30T10:17:04.795Z,14.90
2023-03-30T10:19:38.581Z,15.00
2023-03-30T10:22:17.117Z,15.00
2023-03-30T10:24:52.286Z,14.90
2023-03-30T10:27:29.224Z,14.90
2023-03-30T10:29:57.442Z,14.90
2023-03-30T10:32:31.294Z,14.80
2023-03-30T10:35:04.579Z,14.90
2023-03-30T10:37:37.075Z,14.80
2023-03-30T10:40:15.931Z,14.90
2023-03-30T10:42:47.434Z,15.00
2023-03-30T10:45:20.038Z,14.90
2023-03-30T10:48:04.659Z,14.80
2023-03-30T10:50:41.915Z,14.80
2023-03-30T10:53:25.157Z,15.00
2023-03-30T10:56:04.316Z,15.20
2023-03-30T10:58:55.879Z,15.00
2023-03-30T11:01:31.059Z,15.00
2023-03-30T11:04:16.211Z,15.20
2023-03-30T11:06:57.646Z,15.00
2023-03-30T11:09:30.497Z,14.90
2023-03-30T11:12:02.867Z,14.90
2023-03-30T11:14:45.849Z,14.90
2023-03-30T11:17:22.825Z,14.90
2023-03-30T11:19:56.980Z,15.00
2023-03-30T11:22:37.054Z,15.10
2023-03-30T11:28:08.963Z,14.90
2023-03-30T11:30:50.224Z,15.10
2023-03-30T11:33:27.292Z,14.90
2023-03-30T11:46:43.959Z,14.50
2023-03-30T11:49:35.139Z,14.50
2023-03-30T11:52:13.593Z,14.40
2023-03-30T11:55:09.666Z,14.30
2023-03-30T11:57:46.289Z,14.30
2023-03-30T12:00:27.684Z,14.20
2023-03-30T12:03:09.973Z,14.20
2023-03-30T12:05:41.570Z,14.30
2023-03-30T12:08:31.616Z,14.20
2023-03-30T12:11:05.687Z,14.10
2023-03-30T12:13:44.864Z,14.00
2023-03-30T12:16:28.214Z,14.00
2023-03-30T12:36:43.266Z,13.80
2023-03-30T12:39:19.408Z,13.90
2023-03-30T12:41:58.337Z,13.90
2023-03-30T12:44:52.346Z,14.00
2023-03-30T12:47:43.531Z,14.10
2023-03-30T12:50:24.980Z,14.20
2023-03-30T12:53:12.206Z,14.20
2023-03-30T12:55:47.461Z,14.20
2023-03-30T12:58:36.004Z,14.20
2023-03-30T13:01:16.946Z,14.20
2023-03-30T13:03:54.842Z,14.30
2023-03-30T13:06:27.555Z,14.30
2023-03-30T13:09:04.947Z,14.50
2023-03-30T13:11:46.219Z,14.40
2023-03-30T13:14:27.383Z,14.50
2023-03-30T13:17:17.823Z,14.60
2023-03-30T13:19:52.835Z,14.70
2023-03-30T13:22:31.645Z,14.90
2023-03-30T13:25:32.095Z,14.70
2023-03-30T13:28:01.599Z,14.70
2023-03-30T13:30:31.098Z,14.90
2023-03-30T13:33:11.775Z,14.90
2023-03-30T13:35:54.982Z,15.00
2023-03-30T13:39:00.943Z,15.00
2023-03-30T13:41:51.925Z,15.00
2023-03-30T13:44:35.200Z,15.00
2023-03-30T13:47:19.382Z,15.00
2023-03-30T13:49:56.192Z,15.00
2023-03-30T13:52:32.156Z,15.00
2023-03-30T13:55:03.187Z,15.10
2023-03-30T13:57:38.780Z,15.00
2023-03-30T14:00:11.932Z,15.20
2023-03-30T14:02:42.113Z,15.20
2023-03-30T14:05:15.433Z,15.20
2023-03-30T14:07:47.521Z,15.20
2023-03-30T14:10:18.068Z,15.30
2023-03-30T14:12:54.714Z,15.30
2023-03-30T14:15:25.937Z,15.30
2023-03-30T14:17:56.934Z,15.30
2023-03-30T14:20:40.857Z,15.20
2023-03-30T14:23:15.976Z,15.30
2023-03-30T14:25:44.298Z,15.20
2023-03-30T14:28:17.306Z,15.20
2023-03-30T14:30:53.491Z,15.20
2023-03-30T14:33:22.489Z,15.20
2023-03-30T14:35:54.433Z,15.20
2023-03-30T14:38:25.802Z,15.20
2023-03-30T14:40:58.462Z,15.20
2023-03-30T14:43:31.712Z,15.00
2023-03-30T14:46:04.382Z,15.20
2023-03-30T14:48:34.934Z,15.10
2023-03-30T14:51:03.897Z,15.20
2023-03-30T14:53:32.541Z,15.20
2023-03-30T14:56:02.613Z,15.20
2023-03-30T14:58:33.817Z,15.20
2023-03-30T15:01:09.182Z,15.20
2023-03-30T15:03:39.774Z,15.20
2023-03-30T15:06:09.609Z,15.20
2023-03-30T15:08:40.591Z,15.20
2023-03-30T15:11:11.152Z,15.20
2023-03-30T15:13:49.823Z,15.30
2023-03-30T15:16:20.944Z,15.30
2023-03-30T15:18:51.405Z,15.40
2023-03-30T15:21:22.868Z,15.40
2023-03-30T15:23:52.026Z,15.40
2023-03-30T15:26:21.365Z,15.40
2023-03-30T15:28:54.390Z,15.50
2023-03-30T15:31:23.046Z,15.50
2023-03-30T15:33:57.477Z,15.50
2023-03-30T15:36:29.286Z,15.60
2023-03-30T15:38:59.725Z,15.60
2023-03-30T15:41:46.529Z,15.60
2023-03-30T15:44:21.665Z,15.50
2023-03-30T15:46:57.437Z,15.60
2023-03-30T15:49:31.853Z,15.60
2023-03-30T15:52:02.907Z,15.80
2023-03-30T15:54:38.921Z,15.70
2023-03-30T15:57:15.139Z,15.80
2023-03-30T15:59:48.010Z,15.90
2023-03-30T16:02:18.597Z,16.00
2023-03-30T16:04:46.756Z,16.20
2023-03-30T16:07:18.748Z,16.10
2023-03-30T16:09:47.443Z,16.10
2023-03-30T16:12:18.463Z,16.00
2023-03-30T16:14:49.169Z,16.00
2023-03-30T16:17:18.438Z,16.00
2023-03-30T16:19:47.291Z,15.90
2023-03-30T16:22:18.824Z,15.90
2023-03-30T16:24:48.320Z,16.10
2023-03-30T16:27:16.522Z,15.80
2023-03-30T16:29:45.198Z,15.80
2023-03-30T16:32:14.809Z,15.80
2023-03-30T16:34:44.008Z,15.80
2023-03-30T16:37:12.525Z,15.70
2023-03-30T16:39:40.933Z,15.60
2023-03-30T16:42:09.260Z,15.60
2023-03-30T16:44:37.832Z,15.60
2023-03-30T16:47:07.382Z,15.50
2023-03-30T16:49:37.317Z,15.50
2023-03-30T16:52:06.207Z,15.50
2023-03-30T16:54:34.427Z,15.30
2023-03-30T16:57:02.812Z,15.30
2023-03-30T16:59:33.336Z,15.20
2023-03-30T17:02:02.591Z,15.30
2023-03-30T17:04:33.067Z,15.30
2023-03-30T17:07:02.735Z,15.40
2023-03-30T17:09:30.904Z,15.30
2023-03-30T17:12:00.736Z,15.20
2023-03-30T17:14:30.145Z,15.00
2023-03-30T17:17:00.450Z,15.00
2023-03-30T17:19:29.241Z,15.00
2023-03-30T17:22:00.808Z,15.00
2023-03-30T17:24:30.473Z,14.90
2023-03-30T17:27:01.343Z,14.80
2023-03-30T17:29:29.592Z,14.70
2023-03-30T17:31:57.650Z,14.60
2023-03-30T17:34:25.853Z,14.70
2023-03-30T17:36:54.112Z,14.50
2023-03-30T17:39:24.392Z,14.50
2023-03-30T17:41:53.996Z,14.30
2023-03-30T17:44:22.394Z,14.30
2023-03-30T17:46:51.377Z,14.20
2023-03-30T17:49:19.636Z,14.10
2023-03-30T17:51:48.044Z,14.00
2023-03-30T17:54:16.557Z,13.90
2023-03-30T17:56:44.757Z,13.80
2023-03-30T17:59:24.169Z,13.90
2023-03-30T18:07:20.840Z,13.60
2023-03-30T18:09:49.996Z,13.70
2023-03-30T18:12:21.188Z,13.30
2023-03-30T18:14:51.055Z,13.40
2023-03-30T18:17:19.642Z,13.40
2023-03-30T18:19:48.088Z,13.30
2023-03-30T18:22:19.471Z,13.30
2023-03-30T18:24:47.887Z,13.30
2023-03-30T18:27:16.620Z,13.20
2023-03-30T18:29:44.758Z,13.10
2023-03-30T18:32:14.670Z,13.20
2023-03-30T18:34:43.968Z,13.00
2023-03-30T18:37:12.324Z,13.10
2023-03-30T18:39:41.367Z,13.00
2023-03-30T18:42:09.603Z,13.10
2023-03-30T18:44:38.029Z,13.10
2023-03-30T18:47:06.306Z,13.10
2023-03-30T18:49:37.251Z,13.00
2023-03-30T18:52:05.258Z,13.00
2023-03-30T18:54:33.596Z,13.00
2023-03-30T18:57:02.225Z,13.00
2023-03-30T18:59:30.353Z,13.00
2023-03-30T19:01:58.580Z,12.90
2023-03-30T19:04:26.935Z,12.80
2023-03-30T19:06:59.632Z,12.90
2023-03-30T19:09:42.233Z,12.90
2023-03-30T19:12:18.603Z,12.80
2023-03-30T19:14:46.817Z,12.80
2023-03-30T19:17:15.956Z,12.90
2023-03-30T19:19:44.463Z,12.80
2023-03-30T19:22:14.582Z,12.90
2023-03-30T19:24:42.608Z,12.80
2023-03-30T19:27:14.209Z,12.80
2023-03-30T19:29:42.660Z,12.80
2023-03-30T19:32:11.874Z,12.80
2023-03-30T19:34:48.086Z,12.80
2023-03-30T19:37:21.360Z,13.00
2023-03-30T19:39:51.961Z,12.80
2023-03-30T19:42:21.873Z,12.80
2023-03-30T19:44:50.324Z,12.80
2023-03-30T19:47:18.694Z,12.90
2023-03-30T19:49:46.917Z,12.80
2023-03-30T19:52:15.567Z,12.80
2023-03-30T19:54:46.166Z,12.80
2023-03-30T19:57:14.839Z,12.90
2023-03-30T19:59:46.043Z,12.80
2023-03-30T20:02:15.793Z,12.80
2023-03-30T20:04:44.906Z,12.80
2023-03-30T20:07:16.390Z,12.80
2023-03-30T20:09:46.223Z,12.90
2023-03-30T20:12:14.681Z,12.80
2023-03-30T20:14:44.142Z,12.80
2023-03-30T20:17:12.316Z,12.80
2023-03-30T20:19:42.817Z,12.80
2023-03-30T20:22:16.203Z,12.90
2023-03-30T20:24:46.406Z,12.70
2023-03-30T20:27:15.065Z,12.70
2023-03-30T20:29:46.107Z,12.70
2023-03-30T20:32:16.604Z,12.70
2023-03-30T20:34:49.150Z,12.70
2023-03-30T20:37:21.108Z,12.70
2023-03-30T20:39:53.694Z,12.60
2023-03-30T20:42:28.721Z,12.60
2023-03-30T20:44:58.008Z,12.60
2023-03-30T20:47:33.144Z,12.70
2023-03-30T20:52:52.969Z,12.50
2023-03-30T20:55:22.560Z,12.50
2023-03-30T20:57:51.105Z,12.60
2023-03-30T21:00:20.541Z,12.60
2023-03-30T21:02:48.956Z,12.60
2023-03-30T21:05:17.249Z,12.70
2023-03-30T21:07:47.157Z,12.40
2023-03-30T21:10:16.624Z,12.50
2023-03-30T21:12:46.639Z,12.50
2023-03-30T21:15:15.173Z,12.50
2023-03-30T21:17:43.763Z,12.50
2023-03-30T21:20:14.267Z,12.50
2023-03-30T21:22:42.699Z,12.40
2023-03-30T21:25:13.005Z,12.40
2023-03-30T21:27:41.561Z,12.40
2023-03-30T21:30:14.516Z,12.40
2023-03-30T21:32:42.873Z,12.50
2023-03-30T21:35:11.402Z,12.40
2023-03-30T21:37:40.083Z,12.40
2023-03-30T21:40:09.830Z,12.60
2023-03-30T21:42:38.553Z,12.40
2023-03-30T21:45:08.413Z,12.40
2023-03-30T21:47:41.720Z,12.40
2023-03-30T21:50:13.527Z,12.40
2023-03-30T21:52:45.131Z,12.50
2023-03-30T21:55:22.859Z,12.50
2023-03-30T21:57:53.920Z,12.40
2023-03-30T22:00:22.512Z,12.40
2023-03-30T22:02:53.052Z,12.40
2023-03-30T22:05:21.732Z,12.40
2023-03-30T22:07:50.459Z,12.40
2023-03-30T22:10:18.904Z,12.40
2023-03-30T22:12:49.587Z,12.40
2023-03-30T22:15:18.586Z,12.50
2023-03-30T22:17:46.964Z,12.40
2023-03-30T22:20:18.829Z,12.30
2023-03-30T22:22:47.475Z,12.40
2023-03-30T22:25:19.411Z,12.40
2023-03-30T22:27:48.517Z,12.50
2023-03-30T22:30:18.900Z,12.50
2023-03-30T22:32:49.124Z,12.50
2023-03-30T22:35:20.422Z,12.50
2023-03-30T22:37:48.966Z,12.50
2023-03-30T22:40:17.813Z,12.40
2023-03-30T22:42:47.039Z,12.40
2023-03-30T22:45:16.324Z,12.40
2023-03-30T22:47:45.305Z,12.40
2023-03-30T22:50:14.362Z,12.40
2023-03-30T23:37:58.973Z,12.30
2023-03-30T23:40:27.244Z,12.30
2023-03-30T23:42:55.787Z,12.30
2023-03-30T23:45:23.942Z,12.40
2023-03-30T23:47:52.274Z,12.30
2023-03-30T23:50:20.436Z,12.30
2023-03-30T23:52:48.361Z,12.30
2023-03-30T23:55:18.465Z,12.30
2023-03-30T23:57:46.831Z,12.40
